• Join FlightAware (Why Join?)
  • Login
  • US Flag 
12:55PM EDT


 

Airport Tracker/Info


-or-


 

Live Flight TrackerFlight Track Log ✈ AWE3374 ✈ 16-Apr-2013 ✈ KDCA - KMHT

Flight Track Log - Related Links

Times and Time Zones

All times are in EDT time to prevent confusion due to time zone crossing. See the AWE3374 flight status page for this flight to view local times or setup timezone preferences in your user account.

Time Position Orientation Groundspeed Altitude Reporting Facility
EDT Latitude Longitude Course Direction KTS MPH feet Rate Location/Type
04:03PM 38.7558 -76.9386 90° East 347 399 7,300  Level Washington Center
04:04PM 38.8272 -76.8839 31° Northeast 281 323 10,300 2,160 Climbing Washington Center
04:05PM 38.9028 -76.8239 32° Northeast 297 342 11,700 2,100 Climbing Washington Center
04:06PM 38.9850 -76.7506 35° Northeast 336 387 14,500 2,700 Climbing Washington Center
04:07PM 39.0773 -76.4087 61° Northeast  Level FlightAware Approximate
04:07PM 39.0506 -76.6447 51° Northeast 351 404 17,200  Level Washington Center
04:08PM 39.1167 -76.2810 90° East  Level FlightAware Approximate
04:08PM 39.0850 -76.5169 71° East 358 412 19,700  Level Washington Center
04:09PM 39.1214 -76.3808 71° East 373 429 21,900 1,620 Climbing Washington Center
04:10PM 39.1514 -76.2367 75° East 388 447 23,000 540 Climbing Washington Center
04:11PM 39.1708 -76.0869 80° East 408 470 23,000  Level Washington Center
04:12PM 39.1858 -75.9317 83° East 423 487 23,000 840 Level Washington Center
04:13PM 39.2528 -75.8033 56° Northeast 422 486 24,700 1,620 Climbing Washington Center
04:14PM 39.3383 -75.6908 45° Northeast 417 480 26,300 1,380 Climbing Washington Center
04:15PM 39.4281 -75.5781 44° Northeast 427 491 27,600 1,200 Climbing Washington Center
04:16PM 39.5175 -75.4625 45° Northeast 439 505 28,800 1,260 Climbing Washington Center
04:17PM 39.6069 -75.3464 45° Northeast 446 513 30,200 1,200 Climbing Washington Center
04:19PM 39.7447 -75.1472 48° Northeast 460 529 32,000 1,020 Climbing New York Center
04:20PM 39.8303 -75.0283 47° Northeast 465 535 33,000 480 Climbing New York Center
04:21PM 39.9181 -74.9039 47° Northeast 465 535 33,000  Level New York Center
04:22PM 40.0125 -74.7683 48° Northeast 460 529 33,000  Level New York Center
04:23PM 40.0911 -74.6589 47° Northeast 455 524 33,000  Level New York Center
04:24PM 40.2119 -74.5950 22° Northeast 425 489 33,000  Level New York Center
04:25PM 40.3300 -74.5553 14° North 425 489 33,000  Level New York Center
04:27PM 40.5458 -74.4883 13° North 422 486 33,000  Level Boston Center
04:28PM 40.6631 -74.4539 13° North 417 480 33,000  Level Boston Center
04:29PM 40.7825 -74.4192 12° North 417 480 33,000  Level Boston Center
04:30PM 40.8747 -74.3889 14° North 417 480 33,000 -60 Level Boston Center
04:31PM 41.0003 -74.3542 12° North 417 480 32,900  Descending Boston Center
04:32PM 41.1031 -74.3242 12° North 400 460 33,000  Climbing Boston Center
04:33PM 41.2139 -74.2889 13° North 394 453 33,000  Level Boston Center
04:34PM 41.3314 -74.2481 15° North 394 453 33,000  Level Boston Center
04:35PM 41.4425 -74.2125 13° North 394 453 33,000 -780 Level Boston Center
04:36PM 41.5681 -74.1769 12° North 399 459 31,400 -1,860 Descending Boston Center
04:37PM 41.6789 -74.1439 13° North 404 465 29,300 -1,200 Descending Boston Center
04:38PM 41.7858 -74.1106 13° North 399 459 29,000 -180 Descending Boston Center
04:39PM 41.8903 -74.0800 12° North 389 448 29,000 -180 Level Boston Center
04:40PM 41.9992 -74.0464 13° North 389 448 28,700 -900 Descending Boston Center
04:41PM 42.1039 -74.0128 13° North 394 453 27,300 -900 Descending Boston Center
04:42PM 42.2108 -73.9789 13° North 394 453 27,000 -180 Descending Boston Center
04:43PM 42.3133 -73.9478 13° North 389 448 27,000 -300 Level Boston Center
04:44PM 42.4158 -73.9108 15° North 384 442 26,500 -1,020 Descending Boston Center
04:45PM 42.5183 -73.8794 13° North 379 436 25,000 -780 Descending Boston Center
04:46PM 42.6189 -73.8481 13° North 372 428 25,000 -180 Level Boston Center
04:47PM 42.7133 -73.7794 28° Northeast 366 421 24,700 -840 Descending Boston Center
04:48PM 42.7611 -73.6250 67° East 363 418 23,200 -1,680 Descending Boston Center
04:49PM 42.7628 -73.4356 89° East 366 421 21,000 -1,800 Descending Boston Center
04:50PM 42.7683 -73.2828 87° East 383 441 19,700 -1,020 Descending Boston Center
04:51PM 42.7692 -73.1358 90° East 397 457 19,000 -360 Descending Boston Center
04:52PM 42.7764 -72.9861 86° East 397 457 19,000  Level Boston Center
04:53PM 42.7811 -72.8389 87° East 397 457 19,000  Level Boston Center
04:54PM 42.7856 -72.6919 88° East 392 451 19,000 -660 Level Boston Center
04:55PM 42.7881 -72.5447 89° East 392 451 17,800 -1,680 Descending Boston Center
04:56PM 42.7922 -72.3978 88° East 387 445 15,600 -1,920 Descending Boston Center
04:57PM 42.7983 -72.2844 86° East 382 440 14,000 -1,860 Descending Boston Center
04:58PM 42.8064 -72.1372 86° East 361 415 12,000 -1,980 Descending Boston Center
04:59PM 42.8164 -71.9986 84° East 342 394 10,100 -1,740 Descending Boston Center
05:00PM 42.8264 -71.8908 83° East 326 375 8,600 -1,620 Descending Boston Center
05:01PM 42.8486 -71.7717 76° East 298 343 6,900 -1,560 Descending Boston Center
05:02PM 42.8836 -71.6919 59° Northeast 273 314 5,600 -1,080 Descending Boston Center
05:03PM 42.9583 -71.6514 22° Northeast 256 295 4,800 -1,080 Descending Boston Center
05:04PM 43.0228 -71.6336 11° North 250 288 3,500 -900 Descending Boston Center
05:05PM 43.1019 -71.6325 North 255 293 3,100 -240 Descending Boston Center
05:06PM 43.1500 -71.5833 37° Northeast 242 278 3,100 -540 Level KA90
05:07PM 43.1167 -71.5333 132° Southeast 168 193 2,200 -480 Descending KA90
05:08PM 43.0667 -71.5167 166° South 162 186 2,200 -60 Level KA90
05:09PM 43.0258 -71.4914 156° South 163 188 2,100 -120 Descending Boston Center